sensor_id;sensor_type;location;lat;lon;timestamp;pressure;altitude;pressure_sealevel;temperature;humidity
13690;BME280;6917;52.194;9.894;2023-07-02T00:01:49;100233.66;;;15.92;nan
13690;BME280;6917;52.194;9.894;2023-07-02T00:04:15;100230.63;;;15.97;nan
13690;BME280;6917;52.194;9.894;2023-07-02T00:06:45;100221.94;;;15.95;nan
13690;BME280;6917;52.194;9.894;2023-07-02T00:09:11;100217.75;;;16.01;nan
13690;BME280;6917;52.194;9.894;2023-07-02T00:11:38;100232.06;;;15.91;nan
13690;BME280;6917;52.194;9.894;2023-07-02T00:14:04;100215.84;;;15.90;nan
13690;BME280;6917;52.194;9.894;2023-07-02T00:16:30;100225.84;;;15.94;nan
13690;BME280;6917;52.194;9.894;2023-07-02T00:18:55;100222.16;;;15.90;nan
13690;BME280;6917;52.194;9.894;2023-07-02T00:21:20;100224.91;;;15.90;nan
13690;BME280;6917;52.194;9.894;2023-07-02T00:23:46;100214.44;;;15.80;nan
13690;BME280;6917;52.194;9.894;2023-07-02T00:26:12;100229.22;;;15.75;nan
13690;BME280;6917;52.194;9.894;2023-07-02T00:28:37;100219.81;;;15.76;nan
13690;BME280;6917;52.194;9.894;2023-07-02T00:31:03;100217.41;;;15.75;nan
13690;BME280;6917;52.194;9.894;2023-07-02T00:33:28;100200.72;;;15.68;nan
13690;BME280;6917;52.194;9.894;2023-07-02T00:35:56;100208.72;;;15.73;nan
13690;BME280;6917;52.194;9.894;2023-07-02T00:38:22;100215.94;;;15.77;nan
13690;BME280;6917;52.194;9.894;2023-07-02T00:40:47;100210.34;;;15.62;nan
13690;BME280;6917;52.194;9.894;2023-07-02T00:43:12;100233.53;;;15.61;nan
13690;BME280;6917;52.194;9.894;2023-07-02T00:45:41;100264.84;;;15.68;nan
13690;BME280;6917;52.194;9.894;2023-07-02T00:48:06;100280.94;;;15.66;nan
13690;BME280;6917;52.194;9.894;2023-07-02T00:50:32;100273.91;;;15.69;nan
13690;BME280;6917;52.194;9.894;2023-07-02T00:52:58;100272.91;;;15.61;nan
13690;BME280;6917;52.194;9.894;2023-07-02T00:55:23;100276.56;;;15.65;nan
13690;BME280;6917;52.194;9.894;2023-07-02T00:57:49;100285.66;;;15.66;nan
13690;BME280;6917;52.194;9.894;2023-07-02T01:00:15;100276.13;;;15.63;nan
13690;BME280;6917;52.194;9.894;2023-07-02T01:02:41;100270.03;;;15.58;nan
13690;BME280;6917;52.194;9.894;2023-07-02T01:05:18;100268.66;;;15.64;nan
13690;BME280;6917;52.194;9.894;2023-07-02T01:07:46;100281.03;;;15.58;nan
13690;BME280;6917;52.194;9.894;2023-07-02T01:10:12;100271.28;;;15.60;nan
13690;BME280;6917;52.194;9.894;2023-07-02T01:12:38;100259.69;;;15.67;nan
13690;BME280;6917;52.194;9.894;2023-07-02T01:15:04;100270.38;;;15.68;nan
13690;BME280;6917;52.194;9.894;2023-07-02T01:17:31;100259.72;;;15.55;nan
13690;BME280;6917;52.194;9.894;2023-07-02T01:20:05;100258.91;;;15.66;nan
13690;BME280;6917;52.194;9.894;2023-07-02T01:22:34;100256.25;;;15.58;nan
13690;BME280;6917;52.194;9.894;2023-07-02T01:24:59;100248.94;;;15.50;nan
13690;BME280;6917;52.194;9.894;2023-07-02T01:27:28;100243.94;;;15.39;nan
13690;BME280;6917;52.194;9.894;2023-07-02T01:29:54;100241.84;;;15.48;nan
13690;BME280;6917;52.194;9.894;2023-07-02T01:32:19;100228.88;;;15.49;nan
13690;BME280;6917;52.194;9.894;2023-07-02T01:34:45;100220.50;;;15.45;nan
13690;BME280;6917;52.194;9.894;2023-07-02T01:37:17;100226.00;;;15.45;nan
13690;BME280;6917;52.194;9.894;2023-07-02T01:39:43;100221.97;;;15.55;nan
13690;BME280;6917;52.194;9.894;2023-07-02T01:42:16;100223.47;;;15.53;nan
13690;BME280;6917;52.194;9.894;2023-07-02T01:44:42;100226.13;;;15.49;nan
13690;BME280;6917;52.194;9.894;2023-07-02T01:47:07;100237.47;;;15.47;nan
13690;BME280;6917;52.194;9.894;2023-07-02T01:49:33;100230.69;;;15.45;nan
13690;BME280;6917;52.194;9.894;2023-07-02T01:51:59;100241.38;;;15.46;nan
13690;BME280;6917;52.194;9.894;2023-07-02T01:54:26;100235.31;;;15.41;nan
13690;BME280;6917;52.194;9.894;2023-07-02T01:56:55;100245.28;;;15.45;nan
13690;BME280;6917;52.194;9.894;2023-07-02T01:59:21;100237.97;;;15.37;nan
13690;BME280;6917;52.194;9.894;2023-07-02T02:01:46;100246.22;;;15.37;nan
13690;BME280;6917;52.194;9.894;2023-07-02T02:04:11;100248.66;;;15.27;nan
13690;BME280;6917;52.194;9.894;2023-07-02T02:06:38;100251.22;;;15.20;nan
13690;BME280;6917;52.194;9.894;2023-07-02T02:09:04;100260.47;;;15.15;nan
13690;BME280;6917;52.194;9.894;2023-07-02T02:11:30;100268.19;;;15.22;nan
13690;BME280;6917;52.194;9.894;2023-07-02T02:13:57;100272.28;;;15.28;nan
13690;BME280;6917;52.194;9.894;2023-07-02T02:16:23;100242.69;;;15.25;nan
13690;BME280;6917;52.194;9.894;2023-07-02T02:18:48;100238.69;;;15.22;nan
13690;BME280;6917;52.194;9.894;2023-07-02T02:21:17;100250.06;;;15.21;nan
13690;BME280;6917;52.194;9.894;2023-07-02T02:23:43;100245.91;;;15.27;nan
13690;BME280;6917;52.194;9.894;2023-07-02T02:26:08;100260.03;;;15.13;nan
13690;BME280;6917;52.194;9.894;2023-07-02T02:28:33;100254.50;;;15.25;nan
13690;BME280;6917;52.194;9.894;2023-07-02T02:30:59;100251.75;;;15.25;nan
13690;BME280;6917;52.194;9.894;2023-07-02T02:33:25;100249.72;;;15.22;nan
13690;BME280;6917;52.194;9.894;2023-07-02T02:35:50;100257.16;;;15.34;nan
13690;BME280;6917;52.194;9.894;2023-07-02T02:38:15;100260.22;;;15.32;nan
13690;BME280;6917;52.194;9.894;2023-07-02T02:40:41;100252.22;;;15.27;nan
13690;BME280;6917;52.194;9.894;2023-07-02T02:43:06;100248.09;;;15.21;nan
13690;BME280;6917;52.194;9.894;2023-07-02T02:45:32;100258.88;;;15.26;nan
13690;BME280;6917;52.194;9.894;2023-07-02T02:47:57;100261.63;;;15.26;nan
13690;BME280;6917;52.194;9.894;2023-07-02T02:50:22;100263.91;;;15.24;nan
13690;BME280;6917;52.194;9.894;2023-07-02T02:52:48;100258.75;;;15.23;nan
13690;BME280;6917;52.194;9.894;2023-07-02T02:55:14;100246.81;;;15.18;nan
13690;BME280;6917;52.194;9.894;2023-07-02T02:57:39;100248.47;;;15.20;nan
13690;BME280;6917;52.194;9.894;2023-07-02T03:00:05;100261.19;;;15.12;nan
13690;BME280;6917;52.194;9.894;2023-07-02T03:02:32;100261.72;;;15.17;nan
13690;BME280;6917;52.194;9.894;2023-07-02T03:04:57;100243.88;;;15.11;nan
13690;BME280;6917;52.194;9.894;2023-07-02T03:07:28;100245.69;;;15.20;nan
13690;BME280;6917;52.194;9.894;2023-07-02T03:09:53;100227.00;;;15.25;nan
13690;BME280;6917;52.194;9.894;2023-07-02T03:12:19;100249.47;;;15.27;nan
13690;BME280;6917;52.194;9.894;2023-07-02T03:14:44;100241.56;;;15.26;nan
13690;BME280;6917;52.194;9.894;2023-07-02T03:17:10;100243.69;;;15.32;nan
13690;BME280;6917;52.194;9.894;2023-07-02T03:19:35;100253.69;;;15.37;nan
13690;BME280;6917;52.194;9.894;2023-07-02T03:22:00;100252.44;;;15.34;nan
13690;BME280;6917;52.194;9.894;2023-07-02T03:24:26;100239.13;;;15.36;nan
13690;BME280;6917;52.194;9.894;2023-07-02T03:26:51;100235.56;;;15.36;nan
13690;BME280;6917;52.194;9.894;2023-07-02T03:29:16;100224.91;;;15.34;nan
13690;BME280;6917;52.194;9.894;2023-07-02T03:31:44;100230.28;;;15.31;nan
13690;BME280;6917;52.194;9.894;2023-07-02T03:34:10;100216.53;;;15.31;nan
13690;BME280;6917;52.194;9.894;2023-07-02T03:36:36;100233.16;;;15.34;nan
13690;BME280;6917;52.194;9.894;2023-07-02T03:39:03;100227.88;;;15.29;nan
13690;BME280;6917;52.194;9.894;2023-07-02T03:41:28;100236.94;;;15.30;nan
13690;BME280;6917;52.194;9.894;2023-07-02T03:43:54;100228.59;;;15.26;nan
13690;BME280;6917;52.194;9.894;2023-07-02T03:46:19;100218.47;;;15.30;nan
13690;BME280;6917;52.194;9.894;2023-07-02T03:48:44;100225.59;;;15.31;nan
13690;BME280;6917;52.194;9.894;2023-07-02T03:51:10;100217.09;;;15.36;nan
13690;BME280;6917;52.194;9.894;2023-07-02T03:53:37;100225.09;;;15.41;nan
13690;BME280;6917;52.194;9.894;2023-07-02T03:56:03;100226.78;;;15.46;nan
13690;BME280;6917;52.194;9.894;2023-07-02T03:58:28;100226.22;;;15.53;nan
13690;BME280;6917;52.194;9.894;2023-07-02T04:00:53;100229.31;;;15.51;nan
13690;BME280;6917;52.194;9.894;2023-07-02T04:03:19;100225.78;;;15.51;nan
13690;BME280;6917;52.194;9.894;2023-07-02T04:05:44;100230.81;;;15.48;nan
13690;BME280;6917;52.194;9.894;2023-07-02T04:08:09;100226.56;;;15.63;nan
13690;BME280;6917;52.194;9.894;2023-07-02T04:10:35;100234.81;;;15.63;nan
13690;BME280;6917;52.194;9.894;2023-07-02T04:13:01;100231.72;;;15.65;nan
13690;BME280;6917;52.194;9.894;2023-07-02T04:15:26;100236.53;;;15.56;nan
13690;BME280;6917;52.194;9.894;2023-07-02T04:17:52;100245.94;;;15.67;nan
13690;BME280;6917;52.194;9.894;2023-07-02T04:20:18;100240.41;;;15.67;nan
13690;BME280;6917;52.194;9.894;2023-07-02T04:22:47;100238.47;;;15.67;nan
13690;BME280;6917;52.194;9.894;2023-07-02T04:25:15;100239.72;;;15.70;nan
13690;BME280;6917;52.194;9.894;2023-07-02T04:27:41;100239.56;;;15.79;nan
13690;BME280;6917;52.194;9.894;2023-07-02T04:30:07;100252.47;;;15.90;nan
13690;BME280;6917;52.194;9.894;2023-07-02T04:32:33;100238.59;;;15.87;nan
13690;BME280;6917;52.194;9.894;2023-07-02T04:34:58;100223.03;;;15.79;nan
13690;BME280;6917;52.194;9.894;2023-07-02T04:37:24;100239.41;;;15.87;nan
13690;BME280;6917;52.194;9.894;2023-07-02T04:39:49;100235.50;;;15.88;nan
13690;BME280;6917;52.194;9.894;2023-07-02T04:42:14;100233.53;;;15.89;nan
13690;BME280;6917;52.194;9.894;2023-07-02T04:44:40;100248.31;;;15.96;nan
13690;BME280;6917;52.194;9.894;2023-07-02T04:47:08;100237.66;;;15.95;nan
13690;BME280;6917;52.194;9.894;2023-07-02T04:49:33;100252.94;;;15.92;nan
13690;BME280;6917;52.194;9.894;2023-07-02T04:51:59;100263.59;;;15.94;nan
13690;BME280;6917;52.194;9.894;2023-07-02T04:54:24;100269.34;;;15.89;nan
13690;BME280;6917;52.194;9.894;2023-07-02T04:56:49;100283.69;;;15.54;nan
13690;BME280;6917;52.194;9.894;2023-07-02T04:59:15;100255.56;;;15.08;nan
13690;BME280;6917;52.194;9.894;2023-07-02T05:01:41;100220.66;;;14.48;nan
13690;BME280;6917;52.194;9.894;2023-07-02T05:04:09;100219.53;;;14.04;nan
13690;BME280;6917;52.194;9.894;2023-07-02T05:06:34;100215.41;;;13.64;nan
13690;BME280;6917;52.194;9.894;2023-07-02T05:09:00;100222.38;;;13.62;nan
13690;BME280;6917;52.194;9.894;2023-07-02T05:11:25;100240.78;;;13.61;nan
13690;BME280;6917;52.194;9.894;2023-07-02T05:13:51;100244.63;;;13.48;nan
13690;BME280;6917;52.194;9.894;2023-07-02T05:16:16;100224.31;;;13.40;nan
13690;BME280;6917;52.194;9.894;2023-07-02T05:18:42;100225.59;;;13.43;nan
13690;BME280;6917;52.194;9.894;2023-07-02T05:21:07;100242.00;;;13.31;nan
13690;BME280;6917;52.194;9.894;2023-07-02T05:23:33;100244.25;;;13.29;nan
13690;BME280;6917;52.194;9.894;2023-07-02T05:25:58;100236.91;;;13.21;nan
13690;BME280;6917;52.194;9.894;2023-07-02T05:28:24;100243.22;;;13.13;nan
13690;BME280;6917;52.194;9.894;2023-07-02T05:30:49;100246.28;;;13.20;nan
13690;BME280;6917;52.194;9.894;2023-07-02T05:33:15;100230.47;;;13.17;nan
13690;BME280;6917;52.194;9.894;2023-07-02T05:35:40;100226.41;;;13.23;nan
13690;BME280;6917;52.194;9.894;2023-07-02T05:38:06;100231.88;;;13.23;nan
13690;BME280;6917;52.194;9.894;2023-07-02T05:40:31;100247.97;;;13.33;nan
13690;BME280;6917;52.194;9.894;2023-07-02T05:42:56;100268.84;;;13.46;nan
13690;BME280;6917;52.194;9.894;2023-07-02T05:45:22;100268.63;;;13.51;nan
13690;BME280;6917;52.194;9.894;2023-07-02T05:47:48;100283.41;;;13.59;nan
13690;BME280;6917;52.194;9.894;2023-07-02T05:50:14;100284.63;;;13.70;nan
13690;BME280;6917;52.194;9.894;2023-07-02T05:52:39;100305.25;;;13.76;nan
13690;BME280;6917;52.194;9.894;2023-07-02T05:55:07;100284.50;;;13.66;nan
13690;BME280;6917;52.194;9.894;2023-07-02T05:57:36;100285.16;;;13.84;nan
13690;BME280;6917;52.194;9.894;2023-07-02T06:00:01;100272.22;;;13.85;nan
13690;BME280;6917;52.194;9.894;2023-07-02T06:02:26;100282.78;;;13.95;nan
13690;BME280;6917;52.194;9.894;2023-07-02T06:04:52;100295.09;;;14.10;nan
13690;BME280;6917;52.194;9.894;2023-07-02T06:07:17;100295.31;;;14.17;nan
13690;BME280;6917;52.194;9.894;2023-07-02T06:09:42;100293.22;;;14.35;nan
13690;BME280;6917;52.194;9.894;2023-07-02T06:12:08;100304.78;;;14.40;nan
13690;BME280;6917;52.194;9.894;2023-07-02T06:14:33;100303.13;;;14.48;nan
13690;BME280;6917;52.194;9.894;2023-07-02T06:16:59;100302.22;;;14.56;nan
13690;BME280;6917;52.194;9.894;2023-07-02T06:19:26;100310.47;;;14.68;nan
13690;BME280;6917;52.194;9.894;2023-07-02T06:21:51;100295.69;;;14.85;nan
13690;BME280;6917;52.194;9.894;2023-07-02T06:24:16;100305.34;;;14.91;nan
13690;BME280;6917;52.194;9.894;2023-07-02T06:26:42;100312.31;;;15.01;nan
13690;BME280;6917;52.194;9.894;2023-07-02T06:29:07;100300.41;;;14.97;nan
13690;BME280;6917;52.194;9.894;2023-07-02T06:31:32;100295.91;;;15.04;nan
13690;BME280;6917;52.194;9.894;2023-07-02T06:33:57;100290.75;;;15.15;nan
13690;BME280;6917;52.194;9.894;2023-07-02T06:36:23;100310.25;;;15.22;nan
13690;BME280;6917;52.194;9.894;2023-07-02T06:38:48;100297.84;;;15.28;nan
13690;BME280;6917;52.194;9.894;2023-07-02T06:41:14;100310.44;;;15.41;nan
13690;BME280;6917;52.194;9.894;2023-07-02T06:43:42;100305.75;;;15.42;nan
13690;BME280;6917;52.194;9.894;2023-07-02T06:46:10;100309.88;;;15.48;nan
13690;BME280;6917;52.194;9.894;2023-07-02T06:48:35;100303.66;;;15.51;nan
13690;BME280;6917;52.194;9.894;2023-07-02T06:51:00;100330.34;;;15.75;nan
13690;BME280;6917;52.194;9.894;2023-07-02T06:53:26;100337.22;;;15.93;nan
13690;BME280;6917;52.194;9.894;2023-07-02T06:55:51;100343.56;;;16.10;nan
13690;BME280;6917;52.194;9.894;2023-07-02T06:58:16;100326.31;;;16.13;nan
13690;BME280;6917;52.194;9.894;2023-07-02T07:00:42;100331.28;;;16.35;nan
13690;BME280;6917;52.194;9.894;2023-07-02T07:03:07;100340.81;;;16.38;nan
13690;BME280;6917;52.194;9.894;2023-07-02T07:05:32;100342.22;;;16.47;nan
13690;BME280;6917;52.194;9.894;2023-07-02T07:07:59;100329.59;;;16.46;nan
13690;BME280;6917;52.194;9.894;2023-07-02T07:10:25;100333.34;;;16.54;nan
13690;BME280;6917;52.194;9.894;2023-07-02T07:12:51;100334.50;;;16.53;nan
13690;BME280;6917;52.194;9.894;2023-07-02T07:15:16;100349.38;;;16.64;nan
13690;BME280;6917;52.194;9.894;2023-07-02T07:17:41;100347.63;;;16.72;nan
13690;BME280;6917;52.194;9.894;2023-07-02T07:20:07;100346.03;;;16.71;nan
13690;BME280;6917;52.194;9.894;2023-07-02T07:22:33;100331.88;;;16.72;nan
13690;BME280;6917;52.194;9.894;2023-07-02T07:24:58;100333.31;;;16.82;nan
13690;BME280;6917;52.194;9.894;2023-07-02T07:27:24;100333.31;;;16.82;nan
13690;BME280;6917;52.194;9.894;2023-07-02T07:29:49;100336.34;;;16.92;nan
13690;BME280;6917;52.194;9.894;2023-07-02T07:32:14;100328.59;;;16.98;nan
13690;BME280;6917;52.194;9.894;2023-07-02T07:34:40;100337.50;;;17.07;nan
13690;BME280;6917;52.194;9.894;2023-07-02T07:37:05;100330.53;;;17.13;nan
13690;BME280;6917;52.194;9.894;2023-07-02T07:39:30;100336.84;;;17.14;nan
13690;BME280;6917;52.194;9.894;2023-07-02T07:41:56;100355.63;;;17.24;nan
13690;BME280;6917;52.194;9.894;2023-07-02T07:44:21;100321.19;;;17.02;nan
13690;BME280;6917;52.194;9.894;2023-07-02T07:46:47;100313.00;;;16.90;nan
13690;BME280;6917;52.194;9.894;2023-07-02T07:49:13;100318.06;;;17.04;nan
13690;BME280;6917;52.194;9.894;2023-07-02T07:51:39;100323.13;;;17.17;nan
13690;BME280;6917;52.194;9.894;2023-07-02T07:54:04;100315.13;;;17.12;nan
13690;BME280;6917;52.194;9.894;2023-07-02T07:56:29;100319.75;;;17.24;nan
13690;BME280;6917;52.194;9.894;2023-07-02T07:58:55;100344.13;;;17.38;nan
13690;BME280;6917;52.194;9.894;2023-07-02T08:01:20;100310.28;;;17.25;nan
13690;BME280;6917;52.194;9.894;2023-07-02T08:03:46;100323.19;;;17.21;nan
13690;BME280;6917;52.194;9.894;2023-07-02T08:06:11;100312.50;;;17.19;nan
13690;BME280;6917;52.194;9.894;2023-07-02T08:08:37;100313.78;;;17.22;nan
13690;BME280;6917;52.194;9.894;2023-07-02T08:11:02;100318.91;;;17.39;nan
13690;BME280;6917;52.194;9.894;2023-07-02T08:13:28;100329.16;;;17.39;nan
13690;BME280;6917;52.194;9.894;2023-07-02T08:15:53;100336.63;;;17.38;nan
13690;BME280;6917;52.194;9.894;2023-07-02T08:18:18;100337.09;;;17.60;nan
13690;BME280;6917;52.194;9.894;2023-07-02T08:20:44;100328.88;;;17.63;nan
13690;BME280;6917;52.194;9.894;2023-07-02T08:23:09;100340.41;;;17.65;nan
13690;BME280;6917;52.194;9.894;2023-07-02T08:25:34;100335.56;;;17.62;nan
13690;BME280;6917;52.194;9.894;2023-07-02T08:27:59;100323.94;;;17.53;nan
13690;BME280;6917;52.194;9.894;2023-07-02T08:30:25;100318.72;;;17.32;nan
13690;BME280;6917;52.194;9.894;2023-07-02T08:32:50;100318.03;;;17.19;nan
13690;BME280;6917;52.194;9.894;2023-07-02T08:35:15;100337.66;;;17.14;nan
13690;BME280;6917;52.194;9.894;2023-07-02T08:37:41;100334.44;;;17.12;nan
13690;BME280;6917;52.194;9.894;2023-07-02T08:40:15;100333.56;;;17.08;nan
13690;BME280;6917;52.194;9.894;2023-07-02T08:42:41;100332.41;;;17.09;nan
13690;BME280;6917;52.194;9.894;2023-07-02T08:45:07;100345.13;;;17.14;nan
13690;BME280;6917;52.194;9.894;2023-07-02T08:47:33;100341.94;;;17.12;nan
13690;BME280;6917;52.194;9.894;2023-07-02T08:49:58;100339.53;;;17.10;nan
13690;BME280;6917;52.194;9.894;2023-07-02T08:52:24;100336.22;;;16.89;nan
13690;BME280;6917;52.194;9.894;2023-07-02T08:54:49;100352.44;;;16.90;nan
13690;BME280;6917;52.194;9.894;2023-07-02T08:57:14;100340.06;;;17.00;nan
13690;BME280;6917;52.194;9.894;2023-07-02T08:59:39;100347.19;;;17.01;nan
13690;BME280;6917;52.194;9.894;2023-07-02T09:02:05;100365.88;;;17.23;nan
13690;BME280;6917;52.194;9.894;2023-07-02T09:04:31;100362.66;;;17.37;nan
13690;BME280;6917;52.194;9.894;2023-07-02T09:07:08;100354.09;;;17.42;nan
13690;BME280;6917;52.194;9.894;2023-07-02T09:09:44;100341.44;;;17.41;nan
13690;BME280;6917;52.194;9.894;2023-07-02T09:12:21;100344.56;;;17.40;nan
13690;BME280;6917;52.194;9.894;2023-07-02T09:14:54;100352.38;;;17.53;nan
13690;BME280;6917;52.194;9.894;2023-07-02T09:17:19;100361.81;;;17.68;nan
13690;BME280;6917;52.194;9.894;2023-07-02T09:19:51;100336.75;;;17.61;nan
13690;BME280;6917;52.194;9.894;2023-07-02T09:22:17;100345.09;;;17.65;nan
13690;BME280;6917;52.194;9.894;2023-07-02T09:24:51;100340.63;;;17.76;nan
13690;BME280;6917;52.194;9.894;2023-07-02T09:27:17;100359.50;;;18.09;nan
13690;BME280;6917;52.194;9.894;2023-07-02T09:29:42;100370.09;;;18.46;nan
13690;BME280;6917;52.194;9.894;2023-07-02T09:32:07;100359.09;;;18.49;nan
13690;BME280;6917;52.194;9.894;2023-07-02T09:34:37;100372.88;;;18.46;nan
13690;BME280;6917;52.194;9.894;2023-07-02T09:37:03;100359.81;;;18.23;nan
13690;BME280;6917;52.194;9.894;2023-07-02T09:39:33;100363.88;;;18.29;nan
13690;BME280;6917;52.194;9.894;2023-07-02T09:42:00;100390.31;;;18.50;nan
13690;BME280;6917;52.194;9.894;2023-07-02T09:44:29;100366.84;;;18.40;nan
13690;BME280;6917;52.194;9.894;2023-07-02T09:47:00;100380.16;;;18.54;nan
13690;BME280;6917;52.194;9.894;2023-07-02T09:49:27;100386.41;;;18.70;nan
13690;BME280;6917;52.194;9.894;2023-07-02T09:51:56;100342.69;;;18.60;nan
13690;BME280;6917;52.194;9.894;2023-07-02T09:54:22;100346.16;;;18.53;nan
13690;BME280;6917;52.194;9.894;2023-07-02T09:56:47;100350.41;;;18.51;nan
13690;BME280;6917;52.194;9.894;2023-07-02T09:59:13;100383.28;;;18.71;nan
13690;BME280;6917;52.194;9.894;2023-07-02T10:01:39;100372.56;;;18.70;nan
13690;BME280;6917;52.194;9.894;2023-07-02T10:04:14;100379.34;;;18.95;nan
13690;BME280;6917;52.194;9.894;2023-07-02T10:06:47;100366.66;;;18.94;nan
13690;BME280;6917;52.194;9.894;2023-07-02T10:09:13;100342.50;;;18.68;nan
13690;BME280;6917;52.194;9.894;2023-07-02T10:11:38;100355.09;;;18.47;nan
13690;BME280;6917;52.194;9.894;2023-07-02T10:14:04;100357.50;;;18.67;nan
13690;BME280;6917;52.194;9.894;2023-07-02T10:16:29;100391.09;;;18.89;nan
13690;BME280;6917;52.194;9.894;2023-07-02T10:19:08;100393.44;;;19.10;nan
13690;BME280;6917;52.194;9.894;2023-07-02T10:21:33;100399.28;;;19.05;nan
13690;BME280;6917;52.194;9.894;2023-07-02T10:26:37;100375.31;;;19.16;nan
13690;BME280;6917;52.194;9.894;2023-07-02T10:29:02;100377.13;;;19.05;nan
13690;BME280;6917;52.194;9.894;2023-07-02T10:31:28;100383.56;;;18.89;nan
13690;BME280;6917;52.194;9.894;2023-07-02T10:33:54;100371.47;;;18.55;nan
13690;BME280;6917;52.194;9.894;2023-07-02T10:36:23;100364.66;;;18.30;nan
13690;BME280;6917;52.194;9.894;2023-07-02T10:38:50;100357.81;;;18.04;nan
13690;BME280;6917;52.194;9.894;2023-07-02T10:41:29;100364.44;;;18.19;nan
13690;BME280;6917;52.194;9.894;2023-07-02T10:44:05;100382.22;;;18.60;nan
13690;BME280;6917;52.194;9.894;2023-07-02T10:46:30;100382.31;;;18.83;nan
13690;BME280;6917;52.194;9.894;2023-07-02T10:48:57;100390.47;;;18.99;nan
13690;BME280;6917;52.194;9.894;2023-07-02T10:51:23;100392.22;;;19.33;nan
13690;BME280;6917;52.194;9.894;2023-07-02T10:53:59;100386.91;;;19.48;nan
13690;BME280;6917;52.194;9.894;2023-07-02T10:56:26;100394.63;;;19.58;nan
13690;BME280;6917;52.194;9.894;2023-07-02T10:58:53;100389.69;;;19.74;nan
13690;BME280;6917;52.194;9.894;2023-07-02T11:01:23;100444.75;;;20.02;nan
13690;BME280;6917;52.194;9.894;2023-07-02T11:04:02;100381.53;;;19.85;nan
13690;BME280;6917;52.194;9.894;2023-07-02T11:06:28;100384.19;;;19.51;nan
13690;BME280;6917;52.194;9.894;2023-07-02T11:08:54;100375.72;;;19.41;nan
13690;BME280;6917;52.194;9.894;2023-07-02T11:11:21;100406.72;;;19.73;nan
13690;BME280;6917;52.194;9.894;2023-07-02T11:13:48;100434.50;;;20.06;nan
13690;BME280;6917;52.194;9.894;2023-07-02T11:16:24;100409.47;;;19.99;nan
13690;BME280;6917;52.194;9.894;2023-07-02T11:19:07;100400.84;;;20.08;nan
13690;BME280;6917;52.194;9.894;2023-07-02T11:21:34;100391.50;;;19.89;nan
13690;BME280;6917;52.194;9.894;2023-07-02T11:26:38;100367.28;;;19.33;nan
13690;BME280;6917;52.194;9.894;2023-07-02T11:29:07;100356.13;;;19.03;nan
13690;BME280;6917;52.194;9.894;2023-07-02T11:31:35;100403.53;;;18.98;nan
13690;BME280;6917;52.194;9.894;2023-07-02T11:34:00;100398.41;;;19.00;nan
13690;BME280;6917;52.194;9.894;2023-07-02T11:36:26;100395.31;;;19.06;nan
13690;BME280;6917;52.194;9.894;2023-07-02T11:38:51;100399.44;;;19.15;nan
13690;BME280;6917;52.194;9.894;2023-07-02T11:41:18;100411.41;;;19.46;nan
13690;BME280;6917;52.194;9.894;2023-07-02T11:43:44;100426.31;;;19.87;nan
13690;BME280;6917;52.194;9.894;2023-07-02T11:46:10;100424.22;;;20.07;nan
13690;BME280;6917;52.194;9.894;2023-07-02T11:48:35;100404.81;;;19.80;nan
13690;BME280;6917;52.194;9.894;2023-07-02T11:51:00;100400.34;;;19.46;nan
13690;BME280;6917;52.194;9.894;2023-07-02T11:53:26;100370.25;;;19.21;nan
13690;BME280;6917;52.194;9.894;2023-07-02T11:55:51;100372.38;;;19.05;nan
13690;BME280;6917;52.194;9.894;2023-07-02T11:58:16;100365.13;;;18.97;nan
13690;BME280;6917;52.194;9.894;2023-07-02T12:00:42;100376.25;;;19.00;nan
13690;BME280;6917;52.194;9.894;2023-07-02T12:03:07;100376.50;;;19.15;nan
13690;BME280;6917;52.194;9.894;2023-07-02T12:05:33;100402.88;;;19.54;nan
13690;BME280;6917;52.194;9.894;2023-07-02T12:07:58;100426.47;;;19.98;nan
13690;BME280;6917;52.194;9.894;2023-07-02T12:10:24;100416.81;;;19.88;nan
13690;BME280;6917;52.194;9.894;2023-07-02T12:12:49;100384.00;;;19.64;nan
13690;BME280;6917;52.194;9.894;2023-07-02T12:15:14;100379.97;;;19.57;nan
13690;BME280;6917;52.194;9.894;2023-07-02T12:17:40;100383.66;;;19.42;nan
13690;BME280;6917;52.194;9.894;2023-07-02T12:20:05;100383.44;;;19.28;nan
13690;BME280;6917;52.194;9.894;2023-07-02T12:22:31;100372.66;;;19.23;nan
13690;BME280;6917;52.194;9.894;2023-07-02T12:24:56;100392.50;;;19.25;nan
13690;BME280;6917;52.194;9.894;2023-07-02T12:27:22;100440.97;;;19.61;nan
13690;BME280;6917;52.194;9.894;2023-07-02T12:29:48;100434.28;;;20.18;nan
13690;BME280;6917;52.194;9.894;2023-07-02T12:32:14;100442.53;;;20.41;nan
13690;BME280;6917;52.194;9.894;2023-07-02T12:34:39;100407.25;;;20.12;nan
13690;BME280;6917;52.194;9.894;2023-07-02T12:37:05;100405.81;;;19.95;nan
13690;BME280;6917;52.194;9.894;2023-07-02T12:39:30;100399.34;;;19.84;nan
13690;BME280;6917;52.194;9.894;2023-07-02T12:41:56;100400.31;;;19.69;nan
13690;BME280;6917;52.194;9.894;2023-07-02T12:44:21;100410.03;;;19.82;nan
13690;BME280;6917;52.194;9.894;2023-07-02T12:46:47;100413.09;;;19.77;nan
13690;BME280;6917;52.194;9.894;2023-07-02T12:49:12;100406.78;;;19.80;nan
13690;BME280;6917;52.194;9.894;2023-07-02T12:51:38;100408.41;;;19.81;nan
13690;BME280;6917;52.194;9.894;2023-07-02T12:54:03;100436.31;;;20.25;nan
13690;BME280;6917;52.194;9.894;2023-07-02T12:56:29;100437.16;;;20.56;nan
13690;BME280;6917;52.194;9.894;2023-07-02T12:58:54;100423.94;;;20.45;nan
13690;BME280;6917;52.194;9.894;2023-07-02T13:01:19;100428.28;;;20.43;nan
13690;BME280;6917;52.194;9.894;2023-07-02T13:03:46;100417.66;;;20.52;nan
13690;BME280;6917;52.194;9.894;2023-07-02T13:06:12;100462.94;;;20.93;nan
13690;BME280;6917;52.194;9.894;2023-07-02T13:08:38;100468.47;;;21.27;nan
13690;BME280;6917;52.194;9.894;2023-07-02T13:11:03;100450.53;;;21.24;nan
13690;BME280;6917;52.194;9.894;2023-07-02T13:13:28;100408.81;;;20.76;nan
13690;BME280;6917;52.194;9.894;2023-07-02T13:15:54;100405.63;;;20.41;nan
13690;BME280;6917;52.194;9.894;2023-07-02T13:18:19;100402.72;;;20.30;nan
13690;BME280;6917;52.194;9.894;2023-07-02T13:20:45;100402.78;;;20.04;nan
13690;BME280;6917;52.194;9.894;2023-07-02T13:23:10;100389.06;;;19.84;nan